sensor_id;sensor_type;location;lat;lon;timestamp;temperature;humidity
62424;DHT22;48463;43.604;3.872;2023-04-24T00:02:14;12.90;99.90
62424;DHT22;48463;43.604;3.872;2023-04-24T00:04:41;12.80;99.90
62424;DHT22;48463;43.604;3.872;2023-04-24T00:07:10;12.80;99.90
62424;DHT22;48463;43.604;3.872;2023-04-24T00:09:36;12.70;99.90
62424;DHT22;48463;43.604;3.872;2023-04-24T00:12:02;12.70;99.90
62424;DHT22;48463;43.604;3.872;2023-04-24T00:14:33;12.70;99.90
62424;DHT22;48463;43.604;3.872;2023-04-24T00:17:00;12.70;99.90
62424;DHT22;48463;43.604;3.872;2023-04-24T00:19:28;12.70;99.90
62424;DHT22;48463;43.604;3.872;2023-04-24T00:21:54;12.80;99.90
62424;DHT22;48463;43.604;3.872;2023-04-24T00:24:20;12.80;99.90
62424;DHT22;48463;43.604;3.872;2023-04-24T00:26:46;12.80;99.90
62424;DHT22;48463;43.604;3.872;2023-04-24T00:29:12;12.90;99.90
62424;DHT22;48463;43.604;3.872;2023-04-24T00:31:38;12.90;99.90
62424;DHT22;48463;43.604;3.872;2023-04-24T00:34:04;12.90;99.90
62424;DHT22;48463;43.604;3.872;2023-04-24T00:36:31;13.00;99.90
62424;DHT22;48463;43.604;3.872;2023-04-24T00:38:57;13.00;99.90
62424;DHT22;48463;43.604;3.872;2023-04-24T00:41:24;13.10;99.90
62424;DHT22;48463;43.604;3.872;2023-04-24T00:43:50;13.10;99.90
62424;DHT22;48463;43.604;3.872;2023-04-24T00:46:16;13.10;99.90
62424;DHT22;48463;43.604;3.872;2023-04-24T00:48:43;13.10;99.90
62424;DHT22;48463;43.604;3.872;2023-04-24T00:51:09;13.10;99.90
62424;DHT22;48463;43.604;3.872;2023-04-24T00:53:35;13.20;99.90
62424;DHT22;48463;43.604;3.872;2023-04-24T00:56:01;13.20;99.90
62424;DHT22;48463;43.604;3.872;2023-04-24T00:58:27;13.20;99.90
62424;DHT22;48463;43.604;3.872;2023-04-24T01:00:54;13.20;99.90
62424;DHT22;48463;43.604;3.872;2023-04-24T01:03:22;13.10;99.90
62424;DHT22;48463;43.604;3.872;2023-04-24T01:05:50;13.10;99.90
62424;DHT22;48463;43.604;3.872;2023-04-24T01:08:16;13.10;99.90
62424;DHT22;48463;43.604;3.872;2023-04-24T01:10:42;13.10;99.90
62424;DHT22;48463;43.604;3.872;2023-04-24T01:13:09;13.00;99.90
62424;DHT22;48463;43.604;3.872;2023-04-24T01:15:35;13.00;99.90
62424;DHT22;48463;43.604;3.872;2023-04-24T01:18:01;13.00;99.90
62424;DHT22;48463;43.604;3.872;2023-04-24T01:20:27;12.90;99.90
62424;DHT22;48463;43.604;3.872;2023-04-24T01:22:54;13.00;99.90
62424;DHT22;48463;43.604;3.872;2023-04-24T01:25:22;13.00;99.90
62424;DHT22;48463;43.604;3.872;2023-04-24T01:27:47;13.00;99.90
62424;DHT22;48463;43.604;3.872;2023-04-24T01:30:14;13.00;99.90
62424;DHT22;48463;43.604;3.872;2023-04-24T01:32:40;13.00;99.90
62424;DHT22;48463;43.604;3.872;2023-04-24T01:35:10;13.00;99.90
62424;DHT22;48463;43.604;3.872;2023-04-24T01:37:35;13.00;99.90
62424;DHT22;48463;43.604;3.872;2023-04-24T01:40:05;13.10;99.90
62424;DHT22;48463;43.604;3.872;2023-04-24T01:42:32;13.00;99.90
62424;DHT22;48463;43.604;3.872;2023-04-24T01:44:58;13.00;99.90
62424;DHT22;48463;43.604;3.872;2023-04-24T01:47:24;13.00;99.90
62424;DHT22;48463;43.604;3.872;2023-04-24T01:49:50;13.00;99.90
62424;DHT22;48463;43.604;3.872;2023-04-24T01:52:16;13.00;99.90
62424;DHT22;48463;43.604;3.872;2023-04-24T01:54:43;13.00;99.90
62424;DHT22;48463;43.604;3.872;2023-04-24T01:57:09;12.90;99.90
62424;DHT22;48463;43.604;3.872;2023-04-24T01:59:34;12.90;99.90
62424;DHT22;48463;43.604;3.872;2023-04-24T02:02:02;13.00;99.90
62424;DHT22;48463;43.604;3.872;2023-04-24T02:04:28;13.10;99.90
62424;DHT22;48463;43.604;3.872;2023-04-24T02:06:53;13.20;99.90
62424;DHT22;48463;43.604;3.872;2023-04-24T02:09:19;13.10;99.90
62424;DHT22;48463;43.604;3.872;2023-04-24T02:11:45;13.20;99.90
62424;DHT22;48463;43.604;3.872;2023-04-24T02:14:11;13.20;99.90
62424;DHT22;48463;43.604;3.872;2023-04-24T02:16:37;13.30;99.90
62424;DHT22;48463;43.604;3.872;2023-04-24T02:19:03;13.30;99.90
62424;DHT22;48463;43.604;3.872;2023-04-24T02:21:28;13.20;99.90
62424;DHT22;48463;43.604;3.872;2023-04-24T02:23:56;13.20;99.90
62424;DHT22;48463;43.604;3.872;2023-04-24T02:26:22;13.30;99.90
62424;DHT22;48463;43.604;3.872;2023-04-24T02:28:48;13.30;99.90
62424;DHT22;48463;43.604;3.872;2023-04-24T02:31:14;13.30;99.90
62424;DHT22;48463;43.604;3.872;2023-04-24T02:33:40;13.20;99.90
62424;DHT22;48463;43.604;3.872;2023-04-24T02:36:05;13.30;99.90
62424;DHT22;48463;43.604;3.872;2023-04-24T02:38:31;13.30;99.90
62424;DHT22;48463;43.604;3.872;2023-04-24T02:40:57;13.30;99.90
62424;DHT22;48463;43.604;3.872;2023-04-24T02:43:22;13.20;99.90
62424;DHT22;48463;43.604;3.872;2023-04-24T02:45:48;13.20;99.90
62424;DHT22;48463;43.604;3.872;2023-04-24T02:48:14;13.20;99.90
62424;DHT22;48463;43.604;3.872;2023-04-24T02:50:40;13.20;99.90
62424;DHT22;48463;43.604;3.872;2023-04-24T02:53:06;13.10;99.90
62424;DHT22;48463;43.604;3.872;2023-04-24T02:55:32;13.10;99.90
62424;DHT22;48463;43.604;3.872;2023-04-24T02:57:57;13.00;99.90
62424;DHT22;48463;43.604;3.872;2023-04-24T03:00:23;12.90;99.90
62424;DHT22;48463;43.604;3.872;2023-04-24T03:02:49;12.80;99.90
62424;DHT22;48463;43.604;3.872;2023-04-24T03:05:15;12.50;99.90
62424;DHT22;48463;43.604;3.872;2023-04-24T03:07:41;12.20;99.90
62424;DHT22;48463;43.604;3.872;2023-04-24T03:10:07;12.10;99.90
62424;DHT22;48463;43.604;3.872;2023-04-24T03:12:33;12.00;99.90
62424;DHT22;48463;43.604;3.872;2023-04-24T03:14:59;12.00;99.90
62424;DHT22;48463;43.604;3.872;2023-04-24T03:17:24;11.90;99.90
62424;DHT22;48463;43.604;3.872;2023-04-24T03:19:50;11.90;99.90
62424;DHT22;48463;43.604;3.872;2023-04-24T03:22:16;11.90;99.90
62424;DHT22;48463;43.604;3.872;2023-04-24T03:24:41;11.90;99.90
62424;DHT22;48463;43.604;3.872;2023-04-24T03:27:07;11.80;99.90
62424;DHT22;48463;43.604;3.872;2023-04-24T03:29:34;11.80;99.90
62424;DHT22;48463;43.604;3.872;2023-04-24T03:32:01;11.80;99.90
62424;DHT22;48463;43.604;3.872;2023-04-24T03:34:30;11.90;99.90
62424;DHT22;48463;43.604;3.872;2023-04-24T03:36:57;11.90;99.90
62424;DHT22;48463;43.604;3.872;2023-04-24T03:39:28;12.00;99.90
62424;DHT22;48463;43.604;3.872;2023-04-24T03:41:56;12.00;99.90
62424;DHT22;48463;43.604;3.872;2023-04-24T03:44:22;12.10;99.90
62424;DHT22;48463;43.604;3.872;2023-04-24T03:46:47;12.20;99.90
62424;DHT22;48463;43.604;3.872;2023-04-24T03:49:13;12.30;99.90
62424;DHT22;48463;43.604;3.872;2023-04-24T03:51:38;12.30;99.90
62424;DHT22;48463;43.604;3.872;2023-04-24T03:54:04;12.20;99.90
62424;DHT22;48463;43.604;3.872;2023-04-24T03:56:30;12.30;99.90
62424;DHT22;48463;43.604;3.872;2023-04-24T03:58:55;12.40;99.90
62424;DHT22;48463;43.604;3.872;2023-04-24T04:01:21;12.40;99.90
62424;DHT22;48463;43.604;3.872;2023-04-24T04:03:47;12.50;99.90
62424;DHT22;48463;43.604;3.872;2023-04-24T04:06:13;12.50;99.90
62424;DHT22;48463;43.604;3.872;2023-04-24T04:08:38;12.40;99.90
62424;DHT22;48463;43.604;3.872;2023-04-24T04:11:04;12.50;99.90
62424;DHT22;48463;43.604;3.872;2023-04-24T04:13:30;12.50;99.90
62424;DHT22;48463;43.604;3.872;2023-04-24T04:15:56;12.50;99.90
62424;DHT22;48463;43.604;3.872;2023-04-24T04:18:22;12.60;99.90
62424;DHT22;48463;43.604;3.872;2023-04-24T04:20:47;12.70;99.90
62424;DHT22;48463;43.604;3.872;2023-04-24T04:23:13;12.70;99.90
62424;DHT22;48463;43.604;3.872;2023-04-24T04:25:38;12.70;99.90
62424;DHT22;48463;43.604;3.872;2023-04-24T04:28:04;12.60;99.90
62424;DHT22;48463;43.604;3.872;2023-04-24T04:30:30;12.60;99.90
62424;DHT22;48463;43.604;3.872;2023-04-24T04:32:57;12.50;99.90
62424;DHT22;48463;43.604;3.872;2023-04-24T04:35:23;12.50;99.90
62424;DHT22;48463;43.604;3.872;2023-04-24T04:37:50;12.50;99.90
62424;DHT22;48463;43.604;3.872;2023-04-24T04:40:16;12.50;99.90
62424;DHT22;48463;43.604;3.872;2023-04-24T04:42:42;12.60;99.90
62424;DHT22;48463;43.604;3.872;2023-04-24T04:45:11;12.60;99.90
62424;DHT22;48463;43.604;3.872;2023-04-24T04:47:37;12.70;99.90
62424;DHT22;48463;43.604;3.872;2023-04-24T04:50:04;12.70;99.90
62424;DHT22;48463;43.604;3.872;2023-04-24T04:52:30;12.70;99.90
62424;DHT22;48463;43.604;3.872;2023-04-24T04:54:56;12.80;99.90
62424;DHT22;48463;43.604;3.872;2023-04-24T04:57:22;12.80;99.90
62424;DHT22;48463;43.604;3.872;2023-04-24T04:59:48;12.80;99.90
62424;DHT22;48463;43.604;3.872;2023-04-24T05:02:13;12.90;99.90
62424;DHT22;48463;43.604;3.872;2023-04-24T05:04:39;12.90;99.90
62424;DHT22;48463;43.604;3.872;2023-04-24T05:07:05;12.90;99.90
62424;DHT22;48463;43.604;3.872;2023-04-24T05:09:31;12.90;99.90
62424;DHT22;48463;43.604;3.872;2023-04-24T05:11:57;13.00;99.90
62424;DHT22;48463;43.604;3.872;2023-04-24T05:14:22;12.90;99.90
62424;DHT22;48463;43.604;3.872;2023-04-24T05:16:48;12.90;99.90
62424;DHT22;48463;43.604;3.872;2023-04-24T05:19:14;12.90;99.90
62424;DHT22;48463;43.604;3.872;2023-04-24T05:21:41;12.90;99.90
62424;DHT22;48463;43.604;3.872;2023-04-24T05:24:06;13.10;99.90
62424;DHT22;48463;43.604;3.872;2023-04-24T05:26:32;13.10;99.90
62424;DHT22;48463;43.604;3.872;2023-04-24T05:28:58;13.20;99.90
62424;DHT22;48463;43.604;3.872;2023-04-24T05:31:23;13.30;99.90
62424;DHT22;48463;43.604;3.872;2023-04-24T05:33:49;13.40;99.90
62424;DHT22;48463;43.604;3.872;2023-04-24T05:36:15;13.30;99.90
62424;DHT22;48463;43.604;3.872;2023-04-24T05:38:40;13.40;99.90
62424;DHT22;48463;43.604;3.872;2023-04-24T05:41:06;13.40;99.90
62424;DHT22;48463;43.604;3.872;2023-04-24T05:43:32;13.40;99.90
62424;DHT22;48463;43.604;3.872;2023-04-24T05:45:57;13.40;99.90
62424;DHT22;48463;43.604;3.872;2023-04-24T05:48:23;13.50;99.90
62424;DHT22;48463;43.604;3.872;2023-04-24T05:50:49;13.60;99.90
62424;DHT22;48463;43.604;3.872;2023-04-24T05:53:14;13.60;99.90
62424;DHT22;48463;43.604;3.872;2023-04-24T05:55:40;13.80;99.90
62424;DHT22;48463;43.604;3.872;2023-04-24T05:58:06;13.90;99.90
62424;DHT22;48463;43.604;3.872;2023-04-24T06:00:32;13.90;99.90
62424;DHT22;48463;43.604;3.872;2023-04-24T06:02:59;13.90;99.90
62424;DHT22;48463;43.604;3.872;2023-04-24T06:05:25;13.90;99.90
62424;DHT22;48463;43.604;3.872;2023-04-24T06:07:51;14.00;99.90
62424;DHT22;48463;43.604;3.872;2023-04-24T06:10:17;14.10;99.90
62424;DHT22;48463;43.604;3.872;2023-04-24T06:12:43;14.10;99.90
62424;DHT22;48463;43.604;3.872;2023-04-24T06:15:09;14.20;99.90
62424;DHT22;48463;43.604;3.872;2023-04-24T06:17:34;14.30;99.90
62424;DHT22;48463;43.604;3.872;2023-04-24T06:20:00;14.30;99.90
62424;DHT22;48463;43.604;3.872;2023-04-24T06:22:26;14.40;99.90
62424;DHT22;48463;43.604;3.872;2023-04-24T06:24:52;14.40;99.90
62424;DHT22;48463;43.604;3.872;2023-04-24T06:27:17;14.40;99.90
62424;DHT22;48463;43.604;3.872;2023-04-24T06:29:43;14.40;99.90
62424;DHT22;48463;43.604;3.872;2023-04-24T06:32:09;14.50;99.90
62424;DHT22;48463;43.604;3.872;2023-04-24T06:34:34;14.50;99.90
62424;DHT22;48463;43.604;3.872;2023-04-24T06:37:01;14.50;99.90
62424;DHT22;48463;43.604;3.872;2023-04-24T06:39:27;14.50;99.90
62424;DHT22;48463;43.604;3.872;2023-04-24T06:41:53;14.60;99.90
62424;DHT22;48463;43.604;3.872;2023-04-24T06:44:19;14.60;99.90
62424;DHT22;48463;43.604;3.872;2023-04-24T06:46:45;14.60;99.90
62424;DHT22;48463;43.604;3.872;2023-04-24T06:49:11;14.60;99.90
62424;DHT22;48463;43.604;3.872;2023-04-24T06:51:37;14.70;99.90
62424;DHT22;48463;43.604;3.872;2023-04-24T06:54:03;14.70;99.90
62424;DHT22;48463;43.604;3.872;2023-04-24T06:56:31;14.80;99.90
62424;DHT22;48463;43.604;3.872;2023-04-24T06:59:01;14.90;99.90
62424;DHT22;48463;43.604;3.872;2023-04-24T07:01:27;15.00;99.90
62424;DHT22;48463;43.604;3.872;2023-04-24T07:03:53;15.10;99.90
62424;DHT22;48463;43.604;3.872;2023-04-24T07:06:18;15.20;99.90
62424;DHT22;48463;43.604;3.872;2023-04-24T07:08:48;15.20;99.90
62424;DHT22;48463;43.604;3.872;2023-04-24T07:11:14;15.30;99.90
62424;DHT22;48463;43.604;3.872;2023-04-24T07:13:42;15.50;99.90
62424;DHT22;48463;43.604;3.872;2023-04-24T07:16:08;15.60;99.90
62424;DHT22;48463;43.604;3.872;2023-04-24T07:18:34;15.60;99.90
62424;DHT22;48463;43.604;3.872;2023-04-24T07:21:02;15.70;99.90
62424;DHT22;48463;43.604;3.872;2023-04-24T07:23:28;15.70;99.90
62424;DHT22;48463;43.604;3.872;2023-04-24T07:25:58;15.70;99.90
62424;DHT22;48463;43.604;3.872;2023-04-24T07:28:25;15.90;99.90
62424;DHT22;48463;43.604;3.872;2023-04-24T07:30:51;15.90;99.90
62424;DHT22;48463;43.604;3.872;2023-04-24T07:33:19;16.10;99.90
62424;DHT22;48463;43.604;3.872;2023-04-24T07:35:45;16.10;99.90
62424;DHT22;48463;43.604;3.872;2023-04-24T07:38:10;16.20;99.90
62424;DHT22;48463;43.604;3.872;2023-04-24T07:40:36;16.20;99.90
62424;DHT22;48463;43.604;3.872;2023-04-24T07:43:03;16.20;99.90
62424;DHT22;48463;43.604;3.872;2023-04-24T07:45:29;16.20;99.90
62424;DHT22;48463;43.604;3.872;2023-04-24T07:47:56;16.20;99.90
62424;DHT22;48463;43.604;3.872;2023-04-24T07:50:22;16.40;99.90
62424;DHT22;48463;43.604;3.872;2023-04-24T07:52:48;16.50;99.90
62424;DHT22;48463;43.604;3.872;2023-04-24T07:55:14;16.50;99.90
62424;DHT22;48463;43.604;3.872;2023-04-24T07:57:39;16.50;99.90
62424;DHT22;48463;43.604;3.872;2023-04-24T08:00:05;16.50;99.90
62424;DHT22;48463;43.604;3.872;2023-04-24T08:02:31;16.40;99.90
62424;DHT22;48463;43.604;3.872;2023-04-24T08:04:57;16.60;99.90
62424;DHT22;48463;43.604;3.872;2023-04-24T08:07:25;16.70;99.90
62424;DHT22;48463;43.604;3.872;2023-04-24T08:09:52;16.90;99.90
62424;DHT22;48463;43.604;3.872;2023-04-24T08:12:20;17.00;99.90
62424;DHT22;48463;43.604;3.872;2023-04-24T08:14:45;17.10;99.90
62424;DHT22;48463;43.604;3.872;2023-04-24T08:17:11;17.20;99.90
62424;DHT22;48463;43.604;3.872;2023-04-24T08:19:37;17.20;99.90
62424;DHT22;48463;43.604;3.872;2023-04-24T08:22:03;17.30;99.90
62424;DHT22;48463;43.604;3.872;2023-04-24T08:24:29;17.50;99.90
62424;DHT22;48463;43.604;3.872;2023-04-24T08:26:55;17.60;99.90
62424;DHT22;48463;43.604;3.872;2023-04-24T08:29:23;17.60;99.90
62424;DHT22;48463;43.604;3.872;2023-04-24T08:31:48;17.60;99.90
62424;DHT22;48463;43.604;3.872;2023-04-24T08:34:14;17.60;99.90
62424;DHT22;48463;43.604;3.872;2023-04-24T08:36:41;17.90;99.90
62424;DHT22;48463;43.604;3.872;2023-04-24T08:39:07;18.00;99.90
62424;DHT22;48463;43.604;3.872;2023-04-24T08:41:34;17.90;99.90
62424;DHT22;48463;43.604;3.872;2023-04-24T08:44:02;17.50;99.90
62424;DHT22;48463;43.604;3.872;2023-04-24T08:46:29;17.50;99.90
62424;DHT22;48463;43.604;3.872;2023-04-24T08:48:56;17.70;99.90
62424;DHT22;48463;43.604;3.872;2023-04-24T08:51:22;17.80;99.90
62424;DHT22;48463;43.604;3.872;2023-04-24T08:53:49;18.00;99.90
62424;DHT22;48463;43.604;3.872;2023-04-24T08:56:17;18.30;99.90
62424;DHT22;48463;43.604;3.872;2023-04-24T08:58:44;18.30;99.90
62424;DHT22;48463;43.604;3.872;2023-04-24T09:01:10;18.40;99.90
62424;DHT22;48463;43.604;3.872;2023-04-24T09:03:36;18.50;99.90
62424;DHT22;48463;43.604;3.872;2023-04-24T09:06:04;18.40;99.90
62424;DHT22;48463;43.604;3.872;2023-04-24T09:08:32;18.10;99.90
62424;DHT22;48463;43.604;3.872;2023-04-24T09:10:58;18.40;99.90
62424;DHT22;48463;43.604;3.872;2023-04-24T09:13:27;18.10;99.90
62424;DHT22;48463;43.604;3.872;2023-04-24T09:15:53;17.90;99.90
62424;DHT22;48463;43.604;3.872;2023-04-24T09:18:19;17.70;99.90
62424;DHT22;48463;43.604;3.872;2023-04-24T09:21:07;17.60;99.90
62424;DHT22;48463;43.604;3.872;2023-04-24T09:23:33;17.70;99.90
62424;DHT22;48463;43.604;3.872;2023-04-24T09:26:02;17.60;99.90
62424;DHT22;48463;43.604;3.872;2023-04-24T09:28:39;17.80;99.90
62424;DHT22;48463;43.604;3.872;2023-04-24T09:31:15;18.10;99.90
62424;DHT22;48463;43.604;3.872;2023-04-24T09:34:01;18.10;99.90
62424;DHT22;48463;43.604;3.872;2023-04-24T09:36:31;17.90;99.90
62424;DHT22;48463;43.604;3.872;2023-04-24T09:39:05;17.80;99.90
62424;DHT22;48463;43.604;3.872;2023-04-24T09:41:32;18.20;99.90
62424;DHT22;48463;43.604;3.872;2023-04-24T09:44:12;18.30;99.90
62424;DHT22;48463;43.604;3.872;2023-04-24T09:46:41;18.40;99.80
62424;DHT22;48463;43.604;3.872;2023-04-24T09:49:09;18.50;98.00
62424;DHT22;48463;43.604;3.872;2023-04-24T09:51:37;18.50;97.70
62424;DHT22;48463;43.604;3.872;2023-04-24T09:54:04;18.60;97.00
62424;DHT22;48463;43.604;3.872;2023-04-24T09:56:33;18.80;96.80
62424;DHT22;48463;43.604;3.872;2023-04-24T09:59:06;18.90;95.90
62424;DHT22;48463;43.604;3.872;2023-04-24T10:01:33;18.70;95.40
62424;DHT22;48463;43.604;3.872;2023-04-24T10:03:59;18.50;95.20
62424;DHT22;48463;43.604;3.872;2023-04-24T10:06:34;18.70;95.10
62424;DHT22;48463;43.604;3.872;2023-04-24T10:09:00;18.70;94.00
62424;DHT22;48463;43.604;3.872;2023-04-24T10:11:30;18.80;94.20
62424;DHT22;48463;43.604;3.872;2023-04-24T10:13:56;18.80;94.00
62424;DHT22;48463;43.604;3.872;2023-04-24T10:16:23;18.80;94.00
62424;DHT22;48463;43.604;3.872;2023-04-24T10:18:53;18.60;93.70
62424;DHT22;48463;43.604;3.872;2023-04-24T10:21:20;18.60;93.60
62424;DHT22;48463;43.604;3.872;2023-04-24T10:23:48;18.70;92.00
62424;DHT22;48463;43.604;3.872;2023-04-24T10:26:15;18.50;90.50
62424;DHT22;48463;43.604;3.872;2023-04-24T10:28:51;18.60;91.10
62424;DHT22;48463;43.604;3.872;2023-04-24T10:31:18;18.80;91.30
62424;DHT22;48463;43.604;3.872;2023-04-24T10:33:46;18.80;91.30
62424;DHT22;48463;43.604;3.872;2023-04-24T10:36:13;18.80;91.00
62424;DHT22;48463;43.604;3.872;2023-04-24T10:38:43;18.60;90.50
62424;DHT22;48463;43.604;3.872;2023-04-24T10:41:12;18.50;90.80
62424;DHT22;48463;43.604;3.872;2023-04-24T10:44:07;18.80;91.20
62424;DHT22;48463;43.604;3.872;2023-04-24T10:46:34;19.20;91.10
62424;DHT22;48463;43.604;3.872;2023-04-24T10:49:04;19.40;91.00
62424;DHT22;48463;43.604;3.872;2023-04-24T10:54:26;19.50;89.70
62424;DHT22;48463;43.604;3.872;2023-04-24T10:56:53;19.30;89.00
62424;DHT22;48463;43.604;3.872;2023-04-24T10:59:38;19.30;89.20
62424;DHT22;48463;43.604;3.872;2023-04-24T11:02:07;19.40;89.00
62424;DHT22;48463;43.604;3.872;2023-04-24T11:04:33;19.20;89.30
62424;DHT22;48463;43.604;3.872;2023-04-24T11:07:01;19.30;89.60
62424;DHT22;48463;43.604;3.872;2023-04-24T11:09:28;19.20;89.00
62424;DHT22;48463;43.604;3.872;2023-04-24T11:12:14;19.10;88.30
62424;DHT22;48463;43.604;3.872;2023-04-24T11:17:34;19.20;85.10
62424;DHT22;48463;43.604;3.872;2023-04-24T11:20:07;19.20;84.20
62424;DHT22;48463;43.604;3.872;2023-04-24T11:22:35;19.10;84.60
62424;DHT22;48463;43.604;3.872;2023-04-24T11:25:05;19.30;85.80
62424;DHT22;48463;43.604;3.872;2023-04-24T11:27:39;19.30;86.00
62424;DHT22;48463;43.604;3.872;2023-04-24T11:30:06;19.60;86.40
62424;DHT22;48463;43.604;3.872;2023-04-24T11:35:39;19.50;85.50
62424;DHT22;48463;43.604;3.872;2023-04-24T11:37:56;19.60;85.40
62424;DHT22;48463;43.604;3.872;2023-04-24T11:40:23;19.80;84.70
62424;DHT22;48463;43.604;3.872;2023-04-24T11:42:50;19.80;84.50
62424;DHT22;48463;43.604;3.872;2023-04-24T11:45:17;19.80;83.90
62424;DHT22;48463;43.604;3.872;2023-04-24T11:47:44;19.90;83.80
62424;DHT22;48463;43.604;3.872;2023-04-24T11:50:12;20.20;85.00
62424;DHT22;48463;43.604;3.872;2023-04-24T11:52:40;20.20;85.50
62424;DHT22;48463;43.604;3.872;2023-04-24T11:55:26;20.20;84.80
62424;DHT22;48463;43.604;3.872;2023-04-24T11:57:59;20.00;85.00
62424;DHT22;48463;43.604;3.872;2023-04-24T12:00:27;19.60;85.40
62424;DHT22;48463;43.604;3.872;2023-04-24T12:03:04;19.60;87.40
62424;DHT22;48463;43.604;3.872;2023-04-24T12:05:31;19.30;86.90
62424;DHT22;48463;43.604;3.872;2023-04-24T12:07:57;19.10;85.20
62424;DHT22;48463;43.604;3.872;2023-04-24T12:10:28;19.10;85.30
62424;DHT22;48463;43.604;3.872;2023-04-24T12:12:56;18.90;84.80
62424;DHT22;48463;43.604;3.872;2023-04-24T12:15:22;18.80;84.80
62424;DHT22;48463;43.604;3.872;2023-04-24T12:17:51;18.90;85.80
62424;DHT22;48463;43.604;3.872;2023-04-24T12:20:17;18.80;86.60
62424;DHT22;48463;43.604;3.872;2023-04-24T12:22:59;18.80;86.60
62424;DHT22;48463;43.604;3.872;2023-04-24T12:25:27;18.90;87.10
62424;DHT22;48463;43.604;3.872;2023-04-24T12:30:21;19.00;86.20
62424;DHT22;48463;43.604;3.872;2023-04-24T12:32:48;18.90;85.90
62424;DHT22;48463;43.604;3.872;2023-04-24T12:35:22;18.80;84.20
62424;DHT22;48463;43.604;3.872;2023-04-24T12:37:48;18.70;84.50
62424;DHT22;48463;43.604;3.872;2023-04-24T12:40:15;18.60;82.90
62424;DHT22;48463;43.604;3.872;2023-04-24T12:45:10;18.70;83.10
62424;DHT22;48463;43.604;3.872;2023-04-24T12:47:38;18.70;84.30
62424;DHT22;48463;43.604;3.872;2023-04-24T12:50:04;18.70;84.90
62424;DHT22;48463;43.604;3.872;2023-04-24T12:52:31;18.60;85.30
62424;DHT22;48463;43.604;3.872;2023-04-24T12:54:58;18.70;85.90
62424;DHT22;48463;43.604;3.872;2023-04-24T12:57:26;18.60;84.60
62424;DHT22;48463;43.604;3.872;2023-04-24T12:59:56;18.70;85.40
62424;DHT22;48463;43.604;3.872;2023-04-24T13:02:26;18.80;84.70
62424;DHT22;48463;43.604;3.872;2023-04-24T13:04:52;18.80;84.00
62424;DHT22;48463;43.604;3.872;2023-04-24T13:07:18;18.80;83.40
62424;DHT22;48463;43.604;3.872;2023-04-24T13:09:44;18.80;83.80
62424;DHT22;48463;43.604;3.872;2023-04-24T13:12:11;18.90;84.40
62424;DHT22;48463;43.604;3.872;2023-04-24T13:14:37;19.00;84.20
62424;DHT22;48463;43.604;3.872;2023-04-24T13:17:03;18.90;82.30
62424;DHT22;48463;43.604;3.872;2023-04-24T13:19:34;18.90;82.20
62424;DHT22;48463;43.604;3.872;2023-04-24T13:22:00;19.00;82.60
62424;DHT22;48463;43.604;3.872;2023-04-24T13:24:26;18.90;80.90
62424;DHT22;48463;43.604;3.872;2023-04-24T13:26:52;19.20;81.70
62424;DHT22;48463;43.604;3.872;2023-04-24T13:29:18;19.10;80.40
62424;DHT22;48463;43.604;3.872;2023-04-24T13:31:44;19.00;79.20
62424;DHT22;48463;43.604;3.872;2023-04-24T13:34:10;19.10;80.00
62424;DHT22;48463;43.604;3.872;2023-04-24T13:36:36;19.00;79.80
62424;DHT22;48463;43.604;3.872;2023-04-24T13:39:02;18.90;79.90
62424;DHT22;48463;43.604;3.872;2023-04-24T13:41:32;18.90;79.50
62424;DHT22;48463;43.604;3.872;2023-04-24T13:43:58;19.10;79.50
62424;DHT22;48463;43.604;3.872;2023-04-24T13:46:24;19.10;79.60
62424;DHT22;48463;43.604;3.872;2023-04-24T13:48:50;19.40;79.60
62424;DHT22;48463;43.604;3.872;2023-04-24T13:51:15;19.60;78.80
62424;DHT22;48463;43.604;3.872;2023-04-24T13:53:41;19.50;79.20
62424;DHT22;48463;43.604;3.872;2023-04-24T13:56:06;19.60;79.20
62424;DHT22;48463;43.604;3.872;2023-04-24T13:58:33;19.40;79.30
62424;DHT22;48463;43.604;3.872;2023-04-24T14:00:58;19.50;79.50
62424;DHT22;48463;43.604;3.872;2023-04-24T14:03:24;19.60;79.70
62424;DHT22;48463;43.604;3.872;2023-04-24T14:05:51;19.50;79.80
62424;DHT22;48463;43.604;3.872;2023-04-24T14:08:16;19.40;79.40
62424;DHT22;48463;43.604;3.872;2023-04-24T14:10:43;19.10;80.20
62424;DHT22;48463;43.604;3.872;2023-04-24T14:13:08;19.30;80.40
62424;DHT22;48463;43.604;3.872;2023-04-24T14:15:37;19.40;80.60
62424;DHT22;48463;43.604;3.872;2023-04-24T14:18:03;19.40;80.40
62424;DHT22;48463;43.604;3.872;2023-04-24T14:20:29;19.30;80.30
62424;DHT22;48463;43.604;3.872;2023-04-24T14:22:55;19.50;80.70
62424;DHT22;48463;43.604;3.872;2023-04-24T14:25:20;19.70;81.10
62424;DHT22;48463;43.604;3.872;2023-04-24T14:27:48;19.60;80.50
62424;DHT22;48463;43.604;3.872;2023-04-24T14:30:13;19.80;80.20
62424;DHT22;48463;43.604;3.872;2023-04-24T14:32:40;19.90;80.10
62424;DHT22;48463;43.604;3.872;2023-04-24T14:35:07;19.90;80.50
62424;DHT22;48463;43.604;3.872;2023-04-24T14:37:38;19.80;80.10
62424;DHT22;48463;43.604;3.872;2023-04-24T14:40:07;19.90;81.00
62424;DHT22;48463;43.604;3.872;2023-04-24T14:42:33;20.00;80.70
62424;DHT22;48463;43.604;3.872;2023-04-24T14:44:59;20.00;82.00
62424;DHT22;48463;43.604;3.872;2023-04-24T14:47:25;19.80;81.40
62424;DHT22;48463;43.604;3.872;2023-04-24T14:49:51;19.70;81.60
62424;DHT22;48463;43.604;3.872;2023-04-24T14:52:16;19.80;82.30
62424;DHT22;48463;43.604;3.872;2023-04-24T14:54:43;19.80;81.30
62424;DHT22;48463;43.604;3.872;2023-04-24T14:57:08;19.80;80.50
62424;DHT22;48463;43.604;3.872;2023-04-24T14:59:34;19.70;79.70
62424;DHT22;48463;43.604;3.872;2023-04-24T15:02:00;20.00;79.90
62424;DHT22;48463;43.604;3.872;2023-04-24T15:04:29;20.00;79.50
62424;DHT22;48463;43.604;3.872;2023-04-24T15:06:56;20.10;78.50
62424;DHT22;48463;43.604;3.872;2023-04-24T15:09:22;20.30;78.20
62424;DHT22;48463;43.604;3.872;2023-04-24T15:11:49;20.20;77.10
62424;DHT22;48463;43.604;3.872;2023-04-24T15:14:15;20.00;76.40
62424;DHT22;48463;43.604;3.872;2023-04-24T15:16:41;19.80;76.20
62424;DHT22;48463;43.604;3.872;2023-04-24T15:19:07;20.10;76.50
62424;DHT22;48463;43.604;3.872;2023-04-24T15:21:32;20.10;76.20
62424;DHT22;48463;43.604;3.872;2023-04-24T15:23:58;20.40;76.20
62424;DHT22;48463;43.604;3.872;2023-04-24T15:26:24;20.60;75.70
62424;DHT22;48463;43.604;3.872;2023-04-24T15:28:51;20.60;75.10
62424;DHT22;48463;43.604;3.872;2023-04-24T15:31:20;20.50;75.50
62424;DHT22;48463;43.604;3.872;2023-04-24T15:33:47;20.30;75.70
62424;DHT22;48463;43.604;3.872;2023-04-24T15:36:15;20.00;75.60
62424;DHT22;48463;43.604;3.872;2023-04-24T15:38:41;19.90;76.00
62424;DHT22;48463;43.604;3.872;2023-04-24T15:41:07;19.80;76.60
62424;DHT22;48463;43.604;3.872;2023-04-24T15:43:33;20.00;77.20